Time;durP1;ratioP1;P1;durP2;ratioP2;P2;SDS_P1;SDS_P2;PMS_P1;PMS_P2;Temp;Humidity;BMP_temperature;BMP_pressure;BME280_temperature;BME280_humidity;BME280_pressure;Samples;Min_cycle;Max_cycle;Signal;HPM_P1;HPM_P2
2023/11/14 00:00:06;;;;;;;22.80;2.83;;;11.30;99.90;;;;;;4961543;28;20114;-83
2023/11/14 00:02:33;;;;;;;25.40;2.75;;;11.50;99.90;;;;;;4959736;28;20035;-92
2023/11/14 00:04:59;;;;;;;20.70;2.67;;;11.40;99.90;;;;;;4960342;28;20467;-86
2023/11/14 00:07:25;;;;;;;23.02;2.78;;;11.40;99.90;;;;;;4961900;28;20046;-87
2023/11/14 00:09:51;;;;;;;31.75;2.97;;;11.40;99.90;;;;;;4976344;28;20043;-87
2023/11/14 00:12:19;;;;;;;23.17;2.22;;;11.50;99.90;;;;;;4966566;28;20380;-82
2023/11/14 00:14:45;;;;;;;21.98;3.05;;;11.50;99.90;;;;;;4964286;28;20487;-82
2023/11/14 00:17:11;;;;;;;27.98;2.65;;;11.50;99.90;;;;;;4960795;28;20118;-86
2023/11/14 00:19:38;;;;;;;26.80;4.13;;;11.50;99.90;;;;;;4977302;28;20073;-85
2023/11/14 00:22:05;;;;;;;24.30;2.53;;;11.60;99.90;;;;;;4967074;28;20494;-87
2023/11/14 00:24:31;;;;;;;24.27;2.10;;;11.60;99.90;;;;;;4964721;28;20047;-83
2023/11/14 00:26:56;;;;;;;24.95;2.42;;;11.60;99.90;;;;;;4978480;28;20019;-83
2023/11/14 00:29:22;;;;;;;28.48;3.47;;;11.50;99.90;;;;;;4977318;28;20023;-84
2023/11/14 00:31:48;;;;;;;23.30;3.00;;;11.60;99.90;;;;;;4966409;28;20524;-85
2023/11/14 00:34:14;;;;;;;24.67;1.73;;;11.60;99.90;;;;;;4949726;28;20033;-82
2023/11/14 00:36:41;;;;;;;18.33;2.10;;;11.60;99.90;;;;;;4968279;28;20039;-83
2023/11/14 00:39:09;;;;;;;22.23;3.33;;;11.60;99.90;;;;;;4950688;28;20092;-85
2023/11/14 00:41:35;;;;;;;29.60;3.42;;;11.60;99.90;;;;;;4968864;28;20121;-85
2023/11/14 00:44:02;;;;;;;24.73;3.08;;;11.70;99.90;;;;;;4951991;28;20034;-87
2023/11/14 00:46:28;;;;;;;28.75;3.42;;;11.80;99.90;;;;;;4949349;28;20033;-83
2023/11/14 00:48:56;;;;;;;23.08;2.22;;;11.70;99.90;;;;;;4966071;28;20294;-86
2023/11/14 00:51:21;;;;;;;22.80;2.58;;;11.70;99.90;;;;;;4952247;28;20312;-86
2023/11/14 00:53:51;;;;;;;29.95;2.80;;;11.80;99.90;;;;;;4964767;28;20121;-87
2023/11/14 00:56:17;;;;;;;27.05;2.63;;;11.80;99.90;;;;;;4962765;28;20298;-83
2023/11/14 00:58:43;;;;;;;31.33;3.45;;;11.70;99.90;;;;;;4968953;28;20095;-81
2023/11/14 01:01:09;;;;;;;29.33;2.78;;;11.80;99.90;;;;;;4955948;28;20035;-85
2023/11/14 01:03:34;;;;;;;23.10;2.08;;;11.80;99.90;;;;;;4971722;28;20119;-91
2023/11/14 01:06:01;;;;;;;31.35;3.50;;;11.70;99.90;;;;;;4982203;28;20043;-81
2023/11/14 01:08:27;;;;;;;26.70;3.70;;;11.90;99.90;;;;;;4966776;28;20077;-86
2023/11/14 01:10:52;;;;;;;22.10;2.80;;;12.00;99.90;;;;;;4967143;28;20038;-83
2023/11/14 01:13:18;;;;;;;28.60;3.05;;;11.90;99.90;;;;;;4976672;28;20495;-84
2023/11/14 01:15:44;;;;;;;25.30;3.45;;;11.80;99.90;;;;;;4951868;28;20555;-85
2023/11/14 01:18:11;;;;;;;22.88;2.20;;;11.90;99.90;;;;;;4966001;28;20035;-83
2023/11/14 01:20:37;;;;;;;27.02;2.58;;;11.90;99.90;;;;;;4950167;28;20038;-84
2023/11/14 01:23:03;;;;;;;25.45;2.85;;;11.80;99.90;;;;;;4969672;28;20034;-83
2023/11/14 01:25:29;;;;;;;28.27;3.17;;;11.90;99.90;;;;;;4952202;28;20162;-84
2023/11/14 01:27:54;;;;;;;30.25;3.10;;;11.90;99.90;;;;;;4969215;28;20035;-86
2023/11/14 01:30:20;;;;;;;21.27;1.77;;;11.90;99.90;;;;;;4976615;28;20055;-87
2023/11/14 01:32:46;;;;;;;28.77;2.33;;;11.80;99.90;;;;;;4965379;28;20077;-88
2023/11/14 01:35:12;;;;;;;22.95;2.80;;;12.00;99.90;;;;;;4966644;28;20031;-87
2023/11/14 01:37:38;;;;;;;25.92;2.30;;;11.90;99.90;;;;;;4965020;28;20217;-88
2023/11/14 01:40:05;;;;;;;29.10;3.38;;;11.90;99.90;;;;;;4953377;28;20035;-85
2023/11/14 01:42:31;;;;;;;28.20;2.92;;;12.00;99.90;;;;;;4968758;28;20479;-88
2023/11/14 01:44:57;;;;;;;26.90;3.25;;;12.00;99.90;;;;;;4968435;28;20031;-86
2023/11/14 01:47:24;;;;;;;24.38;3.22;;;12.00;99.90;;;;;;4952329;28;20037;-85
2023/11/14 01:49:50;;;;;;;26.05;2.47;;;11.90;99.90;;;;;;4949977;28;20050;-84
2023/11/14 01:52:17;;;;;;;22.15;2.35;;;12.00;99.90;;;;;;4967512;28;20026;-92
2023/11/14 01:54:43;;;;;;;34.05;3.78;;;11.90;99.90;;;;;;4966005;28;20042;-83
2023/11/14 01:57:11;;;;;;;26.15;2.90;;;11.80;99.90;;;;;;4966305;28;20396;-90
2023/11/14 01:59:37;;;;;;;25.25;2.83;;;11.90;99.90;;;;;;4953322;28;20468;-86
2023/11/14 02:02:04;;;;;;;21.63;2.47;;;11.90;99.90;;;;;;4981264;28;20062;-87
2023/11/14 02:04:33;;;;;;;23.10;2.20;;;11.90;99.90;;;;;;4966593;28;20034;-84
2023/11/14 02:07:00;;;;;;;19.85;2.88;;;11.70;99.90;;;;;;4979718;28;20026;-86
2023/11/14 02:09:27;;;;;;;26.83;3.13;;;11.80;99.90;;;;;;4962514;28;20468;-89
2023/11/14 02:11:55;;;;;;;23.17;2.72;;;11.80;99.90;;;;;;4951516;28;20046;-83
2023/11/14 02:14:22;;;;;;;34.13;2.63;;;11.80;99.90;;;;;;4970408;28;20034;-86
2023/11/14 02:16:49;;;;;;;28.65;2.53;;;11.60;99.90;;;;;;4974871;28;20031;-89
2023/11/14 02:19:15;;;;;;;22.33;3.10;;;11.60;99.90;;;;;;4969909;28;20023;-85
2023/11/14 02:21:42;;;;;;;26.63;2.00;;;11.40;99.90;;;;;;4959782;28;20093;-89
2023/11/14 02:24:19;;;;;;;32.63;4.13;;;11.40;99.90;;;;;;4966726;28;20076;-83
2023/11/14 02:26:51;;;;;;;28.73;2.85;;;11.30;99.90;;;;;;4959400;28;20023;-89
2023/11/14 02:29:21;;;;;;;19.42;1.98;;;11.40;99.90;;;;;;4959917;28;20032;-85
2023/11/14 02:31:50;;;;;;;32.47;4.03;;;11.40;99.90;;;;;;4958669;28;20035;-89
2023/11/14 02:34:15;;;;;;;28.48;2.83;;;11.40;99.90;;;;;;4976391;28;20114;-83
2023/11/14 02:36:41;;;;;;;26.42;2.80;;;11.40;99.90;;;;;;4952866;28;20452;-86
2023/11/14 02:39:10;;;;;;;29.35;2.65;;;11.50;99.90;;;;;;4949383;28;20031;-86
2023/11/14 02:41:36;;;;;;;27.75;3.92;;;11.50;99.90;;;;;;4973324;28;20512;-87
2023/11/14 02:44:03;;;;;;;31.20;3.78;;;11.50;99.90;;;;;;4959711;28;20165;-86
2023/11/14 02:46:29;;;;;;;29.80;3.80;;;11.50;99.90;;;;;;4959383;28;20118;-89
2023/11/14 02:48:55;;;;;;;25.40;3.33;;;11.60;99.90;;;;;;4978141;28;20023;-87
2023/11/14 02:51:20;;;;;;;26.25;2.80;;;11.50;99.90;;;;;;4947803;28;20049;-86
2023/11/14 02:53:46;;;;;;;27.02;3.63;;;11.60;99.90;;;;;;4976855;28;20038;-87
2023/11/14 02:56:12;;;;;;;28.80;3.67;;;11.60;99.90;;;;;;4947445;28;20050;-87
2023/11/14 02:58:39;;;;;;;24.85;2.97;;;11.50;99.90;;;;;;4976458;28;20081;-88
2023/11/14 03:01:05;;;;;;;32.72;4.00;;;11.50;99.90;;;;;;4944687;28;20097;-85
2023/11/14 03:03:31;;;;;;;27.73;3.25;;;11.60;99.90;;;;;;4967313;28;20039;-87
2023/11/14 03:06:00;;;;;;;28.33;2.95;;;11.50;99.90;;;;;;4959127;28;20039;-83
2023/11/14 03:08:25;;;;;;;27.63;2.65;;;11.50;99.90;;;;;;4957299;28;20038;-87
2023/11/14 03:10:51;;;;;;;28.98;3.55;;;11.50;99.90;;;;;;4942971;28;20042;-87
2023/11/14 03:13:17;;;;;;;28.65;2.72;;;11.50;99.90;;;;;;4953028;28;20031;-89
2023/11/14 03:15:43;;;;;;;28.25;3.75;;;11.50;99.90;;;;;;4948986;28;20034;-85
2023/11/14 03:18:09;;;;;;;26.92;3.33;;;11.60;99.90;;;;;;4962927;28;20028;-87
2023/11/14 03:20:35;;;;;;;32.70;3.03;;;11.50;99.90;;;;;;4965642;28;20427;-86
2023/11/14 03:23:02;;;;;;;35.15;4.25;;;11.60;99.90;;;;;;4948604;28;20022;-83
2023/11/14 03:25:28;;;;;;;40.80;3.78;;;11.60;99.90;;;;;;4964516;28;20514;-81
2023/11/14 03:27:53;;;;;;;25.42;2.72;;;11.50;99.90;;;;;;4950858;28;20037;-91
2023/11/14 03:30:19;;;;;;;26.13;2.15;;;11.40;99.90;;;;;;4958020;28;20054;-85
2023/11/14 03:32:45;;;;;;;29.90;3.30;;;11.40;99.90;;;;;;4968294;28;20037;-90
2023/11/14 03:35:11;;;;;;;28.02;3.15;;;11.40;99.90;;;;;;4974915;28;20045;-84
2023/11/14 03:37:37;;;;;;;36.28;3.80;;;11.50;99.90;;;;;;4964433;28;20039;-84
2023/11/14 03:40:04;;;;;;;26.65;2.72;;;11.60;99.90;;;;;;4958250;28;20502;-85
2023/11/14 03:42:32;;;;;;;32.75;2.78;;;11.60;99.90;;;;;;4957104;28;20030;-86
2023/11/14 03:44:59;;;;;;;25.30;2.15;;;11.50;99.90;;;;;;4950288;28;20463;-87
2023/11/14 03:47:25;;;;;;;29.15;3.13;;;11.50;99.90;;;;;;4962076;28;20098;-81
2023/11/14 03:49:51;;;;;;;35.20;3.80;;;11.60;99.90;;;;;;4975018;28;20050;-85
2023/11/14 03:52:17;;;;;;;23.02;2.25;;;11.60;99.90;;;;;;4959525;28;20023;-87
2023/11/14 03:54:42;;;;;;;23.45;3.35;;;11.50;99.90;;;;;;4963058;28;20034;-83
2023/11/14 03:57:08;;;;;;;20.85;2.30;;;11.50;99.90;;;;;;4960512;28;20027;-82
2023/11/14 03:59:33;;;;;;;29.60;2.97;;;11.50;99.90;;;;;;4962763;28;20030;-90
2023/11/14 04:01:59;;;;;;;23.58;2.45;;;11.50;99.90;;;;;;4963092;28;20090;-84
2023/11/14 04:04:25;;;;;;;30.17;3.80;;;11.60;99.90;;;;;;4963449;28;20068;-89
2023/11/14 04:06:51;;;;;;;25.38;2.13;;;11.70;99.90;;;;;;4961334;28;20046;-85
2023/11/14 04:09:16;;;;;;;22.55;2.45;;;11.60;99.90;;;;;;4946752;28;20121;-82
2023/11/14 04:11:49;;;;;;;26.63;2.53;;;11.70;99.90;;;;;;4952816;28;20046;-84
2023/11/14 04:14:15;;;;;;;26.25;2.55;;;11.80;99.90;;;;;;4961993;28;20019;-85
2023/11/14 04:16:41;;;;;;;28.98;2.92;;;11.90;99.90;;;;;;4966284;28;20054;-82
2023/11/14 04:19:07;;;;;;;26.75;2.83;;;12.00;99.90;;;;;;4966731;28;20034;-90
2023/11/14 04:21:33;;;;;;;26.00;3.40;;;11.90;99.90;;;;;;4971934;28;20027;-83
2023/11/14 04:23:58;;;;;;;30.35;2.63;;;12.00;99.90;;;;;;4979885;28;20494;-82
2023/11/14 04:26:25;;;;;;;23.40;2.35;;;12.00;99.90;;;;;;4961818;28;20023;-89
2023/11/14 04:28:51;;;;;;;30.02;3.10;;;12.10;99.90;;;;;;4964255;28;20038;-92
2023/11/14 04:31:17;;;;;;;25.23;2.67;;;12.10;99.90;;;;;;4963174;28;20160;-84
2023/11/14 04:33:43;;;;;;;30.83;3.15;;;12.20;99.90;;;;;;4970295;28;20043;-85
2023/11/14 04:36:13;;;;;;;30.48;2.45;;;12.20;99.90;;;;;;4966773;28;20447;-83
2023/11/14 04:38:39;;;;;;;28.20;3.15;;;12.10;99.90;;;;;;4971897;28;20050;-87
2023/11/14 04:41:05;;;;;;;31.15;2.28;;;12.20;99.90;;;;;;4967262;28;20172;-85
2023/11/14 04:43:32;;;;;;;22.85;2.53;;;12.20;99.90;;;;;;4954861;28;20063;-87
2023/11/14 04:45:57;;;;;;;30.88;3.38;;;12.20;99.90;;;;;;4968595;28;20038;-83
2023/11/14 04:48:23;;;;;;;30.83;3.55;;;12.20;99.90;;;;;;4966146;28;20089;-83
2023/11/14 04:50:49;;;;;;;28.85;2.72;;;12.20;99.90;;;;;;4953638;28;20035;-86
2023/11/14 04:53:14;;;;;;;22.23;3.47;;;12.20;99.90;;;;;;4967371;28;20023;-90
2023/11/14 04:55:40;;;;;;;27.02;3.38;;;12.30;99.90;;;;;;4968379;28;20484;-87
2023/11/14 04:58:08;;;;;;;31.02;3.47;;;12.20;99.90;;;;;;4951045;28;20039;-81
2023/11/14 05:00:34;;;;;;;36.53;3.53;;;12.20;99.90;;;;;;4965026;28;20386;-81
2023/11/14 05:03:04;;;;;;;27.20;2.95;;;12.20;99.90;;;;;;4970143;28;20110;-83
2023/11/14 05:05:34;;;;;;;25.60;2.50;;;12.20;99.90;;;;;;4970609;28;20138;-85
2023/11/14 05:08:00;;;;;;;31.23;4.28;;;12.20;99.90;;;;;;4950310;28;20030;-90
2023/11/14 05:10:25;;;;;;;34.22;4.03;;;12.20;99.90;;;;;;4960190;28;20442;-84
2023/11/14 05:12:51;;;;;;;31.63;3.63;;;12.20;99.90;;;;;;4956054;28;20030;-85
2023/11/14 05:15:17;;;;;;;28.58;3.92;;;12.30;99.90;;;;;;4966299;28;20395;-87
2023/11/14 05:17:42;;;;;;;30.45;3.88;;;12.30;99.90;;;;;;4959771;28;20476;-91
2023/11/14 05:20:09;;;;;;;34.50;4.32;;;12.30;99.90;;;;;;4959626;28;20110;-88
2023/11/14 05:22:35;;;;;;;27.60;2.90;;;12.40;99.90;;;;;;4964769;28;20039;-84
2023/11/14 05:25:01;;;;;;;31.95;3.75;;;12.40;99.90;;;;;;4930096;28;20114;-86
2023/11/14 05:27:27;;;;;;;33.60;3.47;;;12.40;99.90;;;;;;4955001;28;20899;-81
2023/11/14 05:29:53;;;;;;;24.88;4.05;;;12.40;99.90;;;;;;4955219;28;20070;-86
2023/11/14 05:32:19;;;;;;;36.58;4.22;;;12.30;99.90;;;;;;4956570;28;20098;-82
2023/11/14 05:34:45;;;;;;;32.88;3.45;;;12.30;99.90;;;;;;4958229;28;20031;-88
2023/11/14 05:37:10;;;;;;;31.63;3.30;;;12.40;99.90;;;;;;4957223;28;20039;-85
2023/11/14 05:39:36;;;;;;;28.52;3.13;;;12.30;99.90;;;;;;4941130;28;20507;-84
2023/11/14 05:42:02;;;;;;;26.73;4.05;;;12.30;99.90;;;;;;4956544;28;20129;-83
2023/11/14 05:44:28;;;;;;;28.38;2.88;;;12.40;99.90;;;;;;4956110;28;20038;-83
2023/11/14 05:46:54;;;;;;;32.85;4.05;;;12.40;99.90;;;;;;4957382;28;20042;-87
2023/11/14 05:49:20;;;;;;;31.38;3.15;;;12.40;99.90;;;;;;4956765;28;20035;-81
2023/11/14 05:51:46;;;;;;;20.60;2.20;;;12.30;99.90;;;;;;4956137;28;20554;-87
2023/11/14 05:54:12;;;;;;;25.33;2.88;;;12.20;99.90;;;;;;4948281;28;21093;-84
2023/11/14 05:56:37;;;;;;;34.03;3.40;;;12.30;99.90;;;;;;4941545;28;20101;-82
2023/11/14 05:59:04;;;;;;;31.27;3.13;;;12.30;99.90;;;;;;4956111;28;20133;-83
2023/11/14 06:01:30;;;;;;;28.67;3.53;;;12.30;99.90;;;;;;4956270;28;20035;-83
2023/11/14 06:03:56;;;;;;;28.27;3.75;;;12.30;99.90;;;;;;4957632;28;20603;-85
2023/11/14 06:06:22;;;;;;;30.35;2.72;;;12.40;99.90;;;;;;4948637;28;20055;-86
2023/11/14 06:08:47;;;;;;;27.10;2.58;;;12.30;99.90;;;;;;4973753;28;20101;-81
2023/11/14 06:11:34;;;;;;;25.10;2.38;;;12.30;99.90;;;;;;4955845;28;20056;-81
2023/11/14 06:14:01;;;;;;;25.02;2.53;;;12.30;99.90;;;;;;4949995;28;20440;-85
2023/11/14 06:16:27;;;;;;;29.70;3.20;;;12.40;99.90;;;;;;4960973;28;20365;-89
2023/11/14 06:18:52;;;;;;;24.52;2.38;;;12.40;99.90;;;;;;4976618;28;20047;-80
2023/11/14 06:21:18;;;;;;;22.60;1.70;;;12.40;99.90;;;;;;4962579;28;20034;-82
2023/11/14 06:23:44;;;;;;;20.77;1.70;;;12.30;99.90;;;;;;4956180;28;20445;-81
2023/11/14 06:26:10;;;;;;;19.10;2.38;;;12.20;99.90;;;;;;4960406;28;20030;-83
2023/11/14 06:28:36;;;;;;;20.80;1.52;;;12.10;99.90;;;;;;4946269;28;20496;-83
2023/11/14 06:31:02;;;;;;;25.17;2.67;;;12.00;99.90;;;;;;4969417;28;20039;-82
2023/11/14 06:33:32;;;;;;;18.15;2.58;;;12.00;99.90;;;;;;4946507;28;20031;-82
2023/11/14 06:35:58;;;;;;;19.73;2.45;;;12.00;99.90;;;;;;4948697;28;20114;-83
2023/11/14 06:38:24;;;;;;;26.10;2.67;;;11.90;99.90;;;;;;4948742;28;20393;-85
2023/11/14 06:40:50;;;;;;;16.60;1.55;;;11.90;99.90;;;;;;4965845;28;20034;-82
2023/11/14 06:43:16;;;;;;;23.63;2.00;;;11.90;99.90;;;;;;4966084;28;20070;-82
2023/11/14 06:45:42;;;;;;;21.92;2.58;;;11.80;99.90;;;;;;4946762;28;20536;-81
2023/11/14 06:48:08;;;;;;;25.25;3.13;;;11.90;99.90;;;;;;4954142;28;20130;-82
2023/11/14 06:50:33;;;;;;;20.15;2.60;;;11.90;99.90;;;;;;4950684;28;20046;-83
2023/11/14 06:53:19;;;;;;;25.98;3.20;;;11.80;99.90;;;;;;4953751;28;20037;-89
2023/11/14 06:56:10;;;;;;;26.83;2.90;;;11.80;99.90;;;;;;4954303;28;20043;-82
2023/11/14 06:58:40;;;;;;;24.92;2.53;;;11.80;99.90;;;;;;4954339;28;20116;-82
2023/11/14 07:01:07;;;;;;;20.08;2.13;;;11.80;99.90;;;;;;4971604;28;20055;-81
2023/11/14 07:03:33;;;;;;;23.33;2.83;;;11.80;99.90;;;;;;4954909;28;20042;-81
2023/11/14 07:05:58;;;;;;;25.77;2.72;;;11.80;99.90;;;;;;4947208;28;20105;-86
2023/11/14 07:08:24;;;;;;;23.58;2.80;;;11.80;99.90;;;;;;4938819;28;20099;-81
2023/11/14 07:10:50;;;;;;;25.05;2.85;;;11.80;99.90;;;;;;4957164;28;20455;-84
2023/11/14 07:13:17;;;;;;;27.42;3.25;;;11.90;99.90;;;;;;4958831;28;20062;-82
2023/11/14 07:15:43;;;;;;;31.92;3.15;;;11.90;99.90;;;;;;4955327;28;20047;-85
2023/11/14 07:18:09;;;;;;;20.67;2.55;;;11.90;99.90;;;;;;4955594;28;20042;-82
2023/11/14 07:20:34;;;;;;;23.63;2.78;;;11.90;99.90;;;;;;4954859;28;20035;-82
2023/11/14 07:23:00;;;;;;;29.77;3.08;;;11.90;99.90;;;;;;4954291;28;20031;-81
2023/11/14 07:25:28;;;;;;;25.63;2.78;;;11.90;99.90;;;;;;4954877;28;20058;-80
2023/11/14 07:27:54;;;;;;;22.52;3.20;;;11.90;99.90;;;;;;4955171;28;20035;-82
2023/11/14 07:30:22;;;;;;;32.60;2.63;;;11.80;99.90;;;;;;4953449;28;20124;-83
2023/11/14 07:32:48;;;;;;;26.48;3.22;;;11.80;99.90;;;;;;4956665;28;20033;-84
2023/11/14 07:35:13;;;;;;;23.63;3.20;;;11.90;99.90;;;;;;4944591;28;20031;-82
2023/11/14 07:37:39;;;;;;;25.73;2.88;;;11.80;99.90;;;;;;4940709;28;20043;-82
2023/11/14 07:40:06;;;;;;;27.17;2.80;;;11.80;99.90;;;;;;4946671;28;20039;-85
2023/11/14 07:42:32;;;;;;;18.58;2.55;;;11.80;99.90;;;;;;4958735;28;20125;-81
2023/11/14 07:44:57;;;;;;;23.70;2.10;;;11.80;99.90;;;;;;4974741;28;20183;-81
2023/11/14 07:47:24;;;;;;;22.85;2.13;;;11.80;99.90;;;;;;4950828;28;20069;-81
2023/11/14 07:49:50;;;;;;;21.27;2.53;;;11.80;99.90;;;;;;4952230;28;20041;-81
2023/11/14 07:52:16;;;;;;;21.15;2.38;;;11.80;99.90;;;;;;4955555;28;20634;-85
2023/11/14 07:54:42;;;;;;;17.38;2.35;;;11.70;99.90;;;;;;4953456;28;20038;-90
2023/11/14 07:57:08;;;;;;;22.40;2.28;;;11.60;99.90;;;;;;4953657;28;20034;-82
2023/11/14 07:59:33;;;;;;;18.80;2.38;;;11.60;99.90;;;;;;4953831;28;20062;-80
2023/11/14 08:01:59;;;;;;;21.67;3.53;;;11.60;99.90;;;;;;4954596;28;20029;-80
2023/11/14 08:04:25;;;;;;;19.30;2.08;;;11.60;99.90;;;;;;4968895;28;20660;-81
2023/11/14 08:06:51;;;;;;;29.50;3.25;;;11.60;99.90;;;;;;4972595;28;20134;-81
2023/11/14 08:09:20;;;;;;;25.80;2.95;;;11.50;99.90;;;;;;4988547;28;20034;-80
2023/11/14 08:11:46;;;;;;;19.43;2.70;;;11.40;99.90;;;;;;4973013;28;20038;-82
2023/11/14 08:14:12;;;;;;;23.27;2.28;;;11.40;99.90;;;;;;4974162;28;20311;-81
2023/11/14 08:16:37;;;;;;;23.35;3.15;;;11.40;99.90;;;;;;4988966;28;20599;-84
2023/11/14 08:19:03;;;;;;;22.60;2.92;;;11.40;99.90;;;;;;4987325;28;20029;-82
2023/11/14 08:21:29;;;;;;;15.90;1.73;;;11.30;99.90;;;;;;4957989;28;20065;-83
2023/11/14 08:23:55;;;;;;;24.92;2.88;;;11.20;99.90;;;;;;4972837;28;20034;-82
2023/11/14 08:26:21;;;;;;;30.52;3.58;;;11.20;99.90;;;;;;4971605;28;20041;-87
2023/11/14 08:28:47;;;;;;;20.17;2.30;;;11.30;99.90;;;;;;4970729;28;20129;-79
2023/11/14 08:31:12;;;;;;;25.25;3.95;;;11.30;99.90;;;;;;4988887;28;20046;-82
2023/11/14 08:33:38;;;;;;;22.27;2.70;;;11.30;99.90;;;;;;4974215;28;20034;-81
2023/11/14 08:36:04;;;;;;;22.58;3.33;;;11.20;99.90;;;;;;4989097;28;20034;-84
2023/11/14 08:38:30;;;;;;;23.20;3.38;;;11.20;99.90;;;;;;4971496;28;20045;-81
2023/11/14 08:40:56;;;;;;;27.08;2.28;;;11.20;99.90;;;;;;4954980;28;20038;-82
2023/11/14 08:43:22;;;;;;;27.02;3.50;;;11.10;99.90;;;;;;4954282;28;20470;-88
2023/11/14 08:45:48;;;;;;;27.83;3.05;;;11.10;99.90;;;;;;4973461;28;20346;-82
2023/11/14 08:48:14;;;;;;;22.02;2.42;;;11.20;99.90;;;;;;4956414;28;20034;-82
2023/11/14 08:50:40;;;;;;;26.45;2.95;;;11.20;99.90;;;;;;4949978;28;20367;-84
2023/11/14 08:53:06;;;;;;;22.52;2.75;;;11.20;99.90;;;;;;4973450;28;20403;-82
2023/11/14 08:55:32;;;;;;;16.90;2.00;;;11.20;99.90;;;;;;4956408;28;20042;-82
2023/11/14 08:57:59;;;;;;;19.75;2.63;;;11.20;99.90;;;;;;4957847;28;20030;-81
2023/11/14 09:00:26;;;;;;;23.60;2.80;;;11.30;99.90;;;;;;4956444;28;20084;-80
2023/11/14 09:02:52;;;;;;;20.02;2.05;;;11.40;99.90;;;;;;4974382;28;20039;-82
2023/11/14 09:05:18;;;;;;;25.45;3.95;;;11.40;99.90;;;;;;4957287;28;20097;-80
2023/11/14 09:07:43;;;;;;;19.52;2.38;;;11.40;99.90;;;;;;4971745;28;20073;-80
2023/11/14 09:10:11;;;;;;;27.60;3.65;;;11.50;99.90;;;;;;4955786;28;20046;-82
2023/11/14 09:12:36;;;;;;;19.60;2.70;;;11.50;99.90;;;;;;4972853;28;20053;-84
2023/11/14 09:15:05;;;;;;;26.52;3.55;;;11.60;99.90;;;;;;4972394;28;20490;-82
2023/11/14 09:17:31;;;;;;;22.83;2.40;;;11.80;99.90;;;;;;4972135;28;20030;-82
2023/11/14 09:19:57;;;;;;;25.20;2.83;;;12.00;99.90;;;;;;4953023;28;20081;-80
2023/11/14 09:22:25;;;;;;;23.17;3.22;;;11.90;99.90;;;;;;4955931;28;21400;-83
2023/11/14 09:24:52;;;;;;;28.48;3.97;;;11.80;99.90;;;;;;4972846;28;20521;-83
2023/11/14 09:27:18;;;;;;;27.63;3.13;;;11.90;99.90;;;;;;4988155;28;20061;-81
2023/11/14 09:29:44;;;;;;;22.55;3.05;;;11.90;99.90;;;;;;4986230;28;20117;-82
2023/11/14 09:32:09;;;;;;;24.05;2.78;;;12.00;99.90;;;;;;4987898;28;20128;-89
2023/11/14 09:34:35;;;;;;;18.67;2.47;;;12.00;99.90;;;;;;4955277;28;20038;-83
2023/11/14 09:37:04;;;;;;;21.27;3.05;;;12.10;99.90;;;;;;4987934;28;20631;-82
2023/11/14 09:39:31;;;;;;;23.35;2.85;;;12.20;99.90;;;;;;4972150;28;20087;-83
2023/11/14 09:41:57;;;;;;;22.98;3.22;;;12.20;99.90;;;;;;4972149;28;20034;-83
2023/11/14 09:44:25;;;;;;;22.27;2.70;;;12.30;99.90;;;;;;4972769;28;20062;-81
2023/11/14 09:46:52;;;;;;;28.92;3.35;;;12.40;99.90;;;;;;4987942;28;20042;-82
2023/11/14 09:49:18;;;;;;;25.98;4.43;;;12.40;99.90;;;;;;4966847;28;20054;-80
2023/11/14 09:51:45;;;;;;;24.73;2.50;;;12.50;99.90;;;;;;4971897;28;20046;-83
2023/11/14 09:54:15;;;;;;;28.13;2.72;;;12.60;99.90;;;;;;4975195;28;20066;-81
2023/11/14 09:56:50;;;;;;;25.05;3.13;;;12.70;99.90;;;;;;4972017;28;20042;-85
2023/11/14 09:59:18;;;;;;;20.77;2.10;;;12.70;99.90;;;;;;4970919;28;20042;-83
2023/11/14 10:01:44;;;;;;;27.98;2.78;;;12.80;99.90;;;;;;4972227;28;20042;-84
2023/11/14 10:04:10;;;;;;;21.95;2.28;;;12.90;99.90;;;;;;4955703;28;20131;-84
2023/11/14 10:06:42;;;;;;;32.20;2.78;;;13.00;99.90;;;;;;4971476;28;20058;-80
2023/11/14 10:09:14;;;;;;;25.70;2.72;;;12.80;99.90;;;;;;4985746;28;20133;-85
2023/11/14 10:11:46;;;;;;;25.17;2.90;;;12.70;99.90;;;;;;4972733;28;20151;-85
2023/11/14 10:14:15;;;;;;;21.83;2.95;;;12.70;99.90;;;;;;4971916;28;20546;-84
2023/11/14 10:16:41;;;;;;;33.80;4.05;;;12.80;99.90;;;;;;4964091;28;20505;-82
2023/11/14 10:19:12;;;;;;;26.65;2.92;;;12.90;99.90;;;;;;4970440;28;20428;-87
2023/11/14 10:21:38;;;;;;;23.13;3.03;;;12.90;99.90;;;;;;4971391;28;20529;-87
2023/11/14 10:24:15;;;;;;;20.73;2.45;;;13.10;99.90;;;;;;4963297;28;20042;-82
2023/11/14 10:26:52;;;;;;;18.23;1.95;;;13.20;99.90;;;;;;4955519;28;20088;-87
2023/11/14 10:29:23;;;;;;;22.45;2.80;;;13.30;99.90;;;;;;4971603;28;20039;-82
2023/11/14 10:31:50;;;;;;;27.48;2.55;;;13.40;99.90;;;;;;4977859;28;20475;-83
2023/11/14 10:34:33;;;;;;;22.15;3.05;;;13.20;99.90;;;;;;4987033;28;20108;-84
2023/11/14 10:37:01;;;;;;;15.70;1.85;;;13.10;99.90;;;;;;4972589;28;20120;-86
2023/11/14 10:39:27;;;;;;;18.50;2.13;;;12.90;99.90;;;;;;4970907;28;20042;-82
2023/11/14 10:41:53;;;;;;;17.10;1.80;;;12.90;99.90;;;;;;4976493;28;20431;-81
2023/11/14 10:44:20;;;;;;;24.50;3.15;;;12.90;99.90;;;;;;4972815;28;20038;-81
2023/11/14 10:46:58;;;;;;;22.23;2.75;;;13.00;99.90;;;;;;4988995;28;20514;-83
2023/11/14 10:49:24;;;;;;;27.90;3.20;;;13.00;99.90;;;;;;4976532;28;20041;-82
2023/11/14 10:51:51;;;;;;;26.80;3.03;;;13.20;99.90;;;;;;4978835;28;20061;-83
2023/11/14 10:54:18;;;;;;;21.15;2.75;;;13.20;99.90;;;;;;4975352;28;20030;-85
2023/11/14 10:56:47;;;;;;;21.98;3.08;;;13.20;99.90;;;;;;4976536;28;20088;-83
2023/11/14 10:59:14;;;;;;;24.13;2.40;;;13.30;99.90;;;;;;4975626;28;20030;-83
2023/11/14 11:01:47;;;;;;;34.35;4.68;;;13.10;99.90;;;;;;4971019;28;20046;-80
2023/11/14 11:04:18;;;;;;;24.42;2.53;;;13.00;99.90;;;;;;4971319;28;20058;-81
2023/11/14 11:06:45;;;;;;;22.48;2.92;;;13.00;99.90;;;;;;4970299;28;20567;-80
2023/11/14 11:09:11;;;;;;;26.23;3.50;;;12.90;99.90;;;;;;4985739;28;20034;-81
2023/11/14 11:11:45;;;;;;;17.70;2.30;;;12.90;99.90;;;;;;4970629;28;20050;-80
2023/11/14 11:14:14;;;;;;;21.15;3.53;;;12.90;99.90;;;;;;4954029;28;20030;-81
2023/11/14 11:16:44;;;;;;;24.10;2.80;;;12.90;99.90;;;;;;4971011;28;20046;-80
2023/11/14 11:19:17;;;;;;;23.77;3.58;;;12.80;99.90;;;;;;4968281;28;20790;-80
2023/11/14 11:21:57;;;;;;;21.02;3.10;;;12.90;99.90;;;;;;4977182;28;20042;-80
2023/11/14 11:24:25;;;;;;;23.45;2.75;;;13.00;99.90;;;;;;4985887;28;20053;-81
2023/11/14 11:27:20;;;;;;;25.73;3.15;;;12.90;99.90;;;;;;4971697;28;20065;-79
2023/11/14 11:29:58;;;;;;;22.95;3.58;;;12.90;99.90;;;;;;4970135;28;20130;-81
2023/11/14 11:32:35;;;;;;;19.38;2.80;;;12.90;99.90;;;;;;4969377;28;20256;-80
2023/11/14 11:35:16;;;;;;;25.15;3.40;;;13.00;99.90;;;;;;4969793;28;20869;-79
2023/11/14 11:38:09;;;;;;;18.20;2.85;;;13.00;99.90;;;;;;4970453;28;20088;-81
2023/11/14 11:40:37;;;;;;;22.52;3.33;;;13.00;99.90;;;;;;4950704;28;20050;-80
2023/11/14 11:43:09;;;;;;;18.20;2.72;;;13.00;99.90;;;;;;4969416;28;20034;-80
2023/11/14 11:45:40;;;;;;;10.50;1.25;;;13.00;99.90;;;;;;4969357;28;20423;-79
2023/11/14 11:48:34;;;;;;;10.15;1.67;;;13.00;99.90;;;;;;4968506;28;20093;-79
2023/11/14 11:51:20;;;;;;;12.25;1.33;;;13.00;99.90;;;;;;4950974;28;20059;-84
2023/11/14 11:53:47;;;;;;;14.90;2.03;;;12.90;99.90;;;;;;4970933;28;20034;-80
2023/11/14 11:56:36;;;;;;;18.30;2.67;;;12.90;99.90;;;;;;4969759;28;20105;-79
2023/11/14 11:59:03;;;;;;;17.60;2.67;;;12.80;99.90;;;;;;4968828;28;20030;-81
2023/11/14 12:01:30;;;;;;;11.45;1.35;;;12.70;99.90;;;;;;4970069;28;20459;-80
2023/11/14 12:04:12;;;;;;;13.13;1.50;;;12.70;99.90;;;;;;4969842;28;20105;-82
2023/11/14 12:06:43;;;;;;;18.65;2.35;;;12.60;99.90;;;;;;4969041;28;20061;-81
2023/11/14 12:09:09;;;;;;;10.70;1.45;;;12.60;99.90;;;;;;4969136;28;22897;-81
2023/11/14 12:11:35;;;;;;;12.18;1.42;;;12.60;99.90;;;;;;4969747;28;20167;-81
2023/11/14 12:14:01;;;;;;;11.00;1.35;;;12.50;99.90;;;;;;4986073;28;20700;-83
2023/11/14 12:16:27;;;;;;;8.38;1.02;;;12.50;99.90;;;;;;4969958;28;20061;-80
2023/11/14 12:18:54;;;;;;;11.20;1.20;;;12.50;99.90;;;;;;4975289;28;20042;-82
2023/11/14 12:21:21;;;;;;;13.02;1.15;;;12.60;99.90;;;;;;4975131;28;20034;-80
2023/11/14 12:23:47;;;;;;;18.45;1.88;;;12.60;99.90;;;;;;4977682;28;20042;-81
2023/11/14 12:26:13;;;;;;;13.57;2.72;;;12.70;99.90;;;;;;4989748;28;20031;-81
2023/11/14 12:28:40;;;;;;;16.38;3.17;;;12.70;99.90;;;;;;4975457;28;20042;-81
2023/11/14 12:31:08;;;;;;;18.08;1.67;;;12.70;99.90;;;;;;4974532;28;20064;-80
2023/11/14 12:33:50;;;;;;;21.08;3.00;;;12.70;99.90;;;;;;4989116;28;20038;-81
2023/11/14 12:36:23;;;;;;;14.35;2.30;;;12.70;99.90;;;;;;4965030;28;20046;-80